Time;durP1;ratioP1;P1;durP2;ratioP2;P2;SDS_P1;SDS_P2;PMS_P1;PMS_P2;Temp;Humidity;BMP_temperature;BMP_pressure;BME280_temperature;BME280_humidity;BME280_pressure;Samples;Min_cycle;Max_cycle;Signal;HPM_P1;HPM_P2
2022/02/19 00:00:54;;;;;;;;;0.00;0.00;;;;;7.43;61.21;101428.22;5040662;28;46876;-73
2022/02/19 00:03:19;;;;;;;;;1.00;1.00;;;;;7.42;61.48;101426.50;5054440;28;45587;-73
2022/02/19 00:05:44;;;;;;;;;0.75;0.00;;;;;7.43;61.26;101435.19;5054796;28;45564;-73
2022/02/19 00:08:11;;;;;;;;;4.50;1.00;;;;;7.41;61.44;101427.38;5054818;28;46093;-73
2022/02/19 00:10:36;;;;;;;;;1.00;1.00;;;;;7.40;61.18;101437.88;5054129;28;45399;-73
2022/02/19 00:13:02;;;;;;;;;0.00;0.00;;;;;7.40;61.76;101432.63;5053795;28;45837;-73
2022/02/19 00:15:27;;;;;;;;;0.50;0.50;;;;;7.38;61.33;101440.50;5054671;28;45395;-73
2022/02/19 00:17:54;;;;;;;;;4.00;1.00;;;;;7.37;61.63;101445.78;5053603;28;46129;-73
2022/02/19 00:20:19;;;;;;;;;0.00;0.00;;;;;7.33;62.43;101442.34;5054768;28;45885;-73
2022/02/19 00:22:45;;;;;;;;;2.00;0.00;;;;;7.32;61.81;101443.25;5053918;28;45489;-73
2022/02/19 00:25:10;;;;;;;;;0.75;0.75;;;;;7.30;62.10;101451.09;5054099;28;45471;-73
2022/02/19 00:27:36;;;;;;;;;2.25;0.50;;;;;7.28;62.27;101457.25;5053979;28;47065;-73
2022/02/19 00:30:05;;;;;;;;;0.00;0.00;;;;;7.27;62.23;101461.63;5053737;28;45350;-73
2022/02/19 00:32:31;;;;;;;;;0.75;0.00;;;;;7.26;62.61;101451.22;5054107;28;45309;-73
2022/02/19 00:34:57;;;;;;;;;1.00;1.00;;;;;7.24;62.39;101460.81;5054789;28;45620;-73
2022/02/19 00:37:22;;;;;;;;;0.00;0.00;;;;;7.23;62.56;101459.09;5053671;28;45382;-73
2022/02/19 00:39:48;;;;;;;;;0.25;0.25;;;;;7.21;62.47;101472.19;5053995;28;45387;-73
2022/02/19 00:42:13;;;;;;;;;5.25;1.50;;;;;7.18;62.75;101472.25;5053475;28;45318;-73
2022/02/19 00:44:38;;;;;;;;;1.50;0.00;;;;;7.17;62.91;101470.53;5053792;28;53984;-73
2022/02/19 00:47:04;;;;;;;;;1.00;0.00;;;;;7.15;62.95;101471.41;5054205;28;46892;-73
2022/02/19 00:49:29;;;;;;;;;4.50;2.00;;;;;7.13;62.72;101478.44;5053516;28;45552;-73
2022/02/19 00:51:55;;;;;;;;;0.00;0.00;;;;;7.11;62.86;101470.63;5053498;28;45467;-73
2022/02/19 00:54:20;;;;;;;;;5.00;1.00;;;;;7.10;63.06;101478.47;5053697;28;45487;-73
2022/02/19 00:56:46;;;;;;;;;2.75;1.00;;;;;7.09;63.23;101495.91;5053547;28;46060;-73
2022/02/19 00:59:11;;;;;;;;;1.00;1.00;;;;;7.06;63.23;101495.97;5054221;28;45537;-73
2022/02/19 01:01:37;;;;;;;;;0.25;0.00;;;;;7.04;63.30;101489.91;5039926;28;45328;-73
2022/02/19 01:04:03;;;;;;;;;1.25;0.50;;;;;7.01;63.06;101503.88;5053616;28;45542;-73
2022/02/19 01:06:28;;;;;;;;;0.00;0.00;;;;;7.01;63.23;101503.88;5055433;28;45541;-73
2022/02/19 01:08:54;;;;;;;;;0.50;0.00;;;;;6.98;63.09;101506.53;5057031;28;45221;-73
2022/02/19 01:11:20;;;;;;;;;2.00;0.00;;;;;6.98;63.31;101511.75;5058459;28;45447;-73
2022/02/19 01:13:47;;;;;;;;;1.00;0.00;;;;;6.98;63.39;101510.91;5057008;28;45640;-73
2022/02/19 01:16:12;;;;;;;;;0.00;0.00;;;;;6.94;63.04;101515.34;5056488;28;46199;-73
2022/02/19 01:18:38;;;;;;;;;1.50;0.25;;;;;6.95;63.00;101511.84;5056784;28;45463;-73
2022/02/19 01:21:03;;;;;;;;;1.00;0.75;;;;;6.93;62.99;101510.97;5057436;28;45668;-73
2022/02/19 01:23:29;;;;;;;;;2.00;1.00;;;;;6.92;63.20;101506.63;5041935;28;45450;-73
2022/02/19 01:25:54;;;;;;;;;1.25;0.00;;;;;6.90;63.25;101500.59;5057151;28;46053;-76
2022/02/19 01:28:20;;;;;;;;;0.50;0.50;;;;;6.89;63.70;101504.09;5054678;28;45478;-75
2022/02/19 01:30:46;;;;;;;;;3.25;1.00;;;;;6.88;63.68;101499.72;5056527;28;45867;-73
2022/02/19 01:33:11;;;;;;;;;2.25;1.00;;;;;6.86;63.23;101506.75;5056773;28;45410;-73
2022/02/19 01:35:37;;;;;;;;;0.00;0.00;;;;;6.86;63.25;101508.50;5070835;28;46076;-73
2022/02/19 01:38:03;;;;;;;;;1.00;0.00;;;;;6.84;63.62;101518.97;5057326;28;45295;-72
2022/02/19 01:40:29;;;;;;;;;0.00;0.00;;;;;6.82;63.67;101509.41;5056263;28;45425;-73
2022/02/19 01:42:54;;;;;;;;;0.75;0.00;;;;;6.80;64.03;101510.31;5056191;28;45371;-72
2022/02/19 01:45:19;;;;;;;;;1.00;1.00;;;;;6.80;63.80;101512.06;5056396;28;45337;-73
2022/02/19 01:47:45;;;;;;;;;2.75;0.00;;;;;6.76;63.98;101511.22;5056334;28;45476;-73
2022/02/19 01:50:11;;;;;;;;;2.50;0.50;;;;;6.76;63.79;101515.59;5056766;28;46090;-73
2022/02/19 01:52:39;;;;;;;;;0.00;0.00;;;;;6.74;64.16;101514.78;5056464;28;45387;-73
2022/02/19 01:55:05;;;;;;;;;0.25;0.00;;;;;6.73;64.22;101513.00;5056471;28;47022;-73
2022/02/19 01:57:31;;;;;;;;;2.25;1.00;;;;;6.71;64.44;101518.28;5056172;28;45511;-73
2022/02/19 01:59:57;;;;;;;;;1.75;1.00;;;;;6.70;64.58;101515.69;5056077;28;45913;-73
2022/02/19 02:02:23;;;;;;;;;1.50;0.50;;;;;6.68;64.28;101518.34;5056890;28;45282;-73
2022/02/19 02:04:48;;;;;;;;;2.00;0.00;;;;;6.66;64.49;101512.25;5056012;28;46552;-73
2022/02/19 02:07:14;;;;;;;;;0.00;0.00;;;;;6.61;64.39;101516.69;5052409;28;45533;-73
2022/02/19 02:09:39;;;;;;;;;1.25;1.25;;;;;6.63;64.80;101517.53;5048277;28;45656;-73
2022/02/19 02:12:09;;;;;;;;;5.25;0.75;;;;;6.61;65.11;101527.13;5050751;28;45360;-73
2022/02/19 02:14:41;;;;;;;;;6.00;0.50;;;;;6.57;65.21;101525.44;5054806;28;46417;-73
2022/02/19 02:17:12;;;;;;;;;1.00;0.00;;;;;6.60;65.45;101519.31;5055580;28;45979;-73
2022/02/19 02:19:39;;;;;;;;;1.00;1.00;;;;;6.58;65.06;101536.75;5049512;28;48186;-74
2022/02/19 02:22:07;;;;;;;;;1.00;1.00;;;;;6.58;65.17;101536.75;5060585;28;45300;-73
2022/02/19 02:24:35;;;;;;;;;1.50;0.00;;;;;6.56;65.34;101538.53;5057284;28;45382;-74
2022/02/19 02:27:04;;;;;;;;;3.00;0.00;;;;;6.53;65.31;101542.91;5055433;28;45987;-74
2022/02/19 02:29:30;;;;;;;;;2.25;0.00;;;;;6.51;65.82;101543.81;5058878;28;45682;-74
2022/02/19 02:31:56;;;;;;;;;0.25;0.00;;;;;6.50;65.78;101542.94;5060082;28;45367;-74
2022/02/19 02:34:21;;;;;;;;;2.25;1.00;;;;;6.47;66.07;101537.78;5056404;28;49441;-73
2022/02/19 02:36:46;;;;;;;;;1.25;0.00;;;;;6.47;66.47;101542.09;5059330;28;47702;-74
2022/02/19 02:39:12;;;;;;;;;1.00;1.00;;;;;6.47;66.13;101544.72;5058236;28;45797;-74
2022/02/19 02:41:38;;;;;;;;;0.00;0.00;;;;;6.48;66.35;101551.69;5057690;28;45505;-74
2022/02/19 02:44:04;;;;;;;;;4.50;0.00;;;;;6.44;66.41;101539.56;5060163;28;45267;-74
2022/02/19 02:46:29;;;;;;;;;0.00;0.00;;;;;6.44;66.45;101539.56;5059284;28;45687;-75
2022/02/19 02:48:55;;;;;;;;;0.00;0.00;;;;;6.42;66.43;101550.03;5059733;28;45473;-73
2022/02/19 02:51:20;;;;;;;;;0.00;0.00;;;;;6.39;66.88;101529.16;5063257;28;45349;-73
2022/02/19 02:53:46;;;;;;;;;1.00;1.00;;;;;6.39;66.86;101533.53;5055236;28;46062;-73
2022/02/19 02:56:11;;;;;;;;;0.50;0.00;;;;;6.38;66.83;101537.88;5060079;28;45538;-75
2022/02/19 02:58:36;;;;;;;;;0.00;0.00;;;;;6.35;67.03;101535.31;5054868;28;45471;-73
2022/02/19 03:01:03;;;;;;;;;1.25;0.00;;;;;6.35;66.81;101537.06;5055769;28;45495;-74
2022/02/19 03:03:28;;;;;;;;;2.00;1.00;;;;;6.33;66.98;101550.13;5055148;28;45388;-75
2022/02/19 03:05:54;;;;;;;;;0.50;0.00;;;;;6.32;67.35;101544.91;5054976;28;45503;-73
2022/02/19 03:08:19;;;;;;;;;0.50;0.00;;;;;6.30;66.81;101550.16;5054935;28;45436;-73
2022/02/19 03:10:45;;;;;;;;;2.00;1.00;;;;;6.27;67.18;101560.66;5052506;28;45299;-73
2022/02/19 03:13:10;;;;;;;;;2.00;0.25;;;;;6.23;66.86;101558.97;5053325;28;46186;-73
2022/02/19 03:15:35;;;;;;;;;0.00;0.00;;;;;6.20;67.12;101559.84;5054907;28;52148;-73
2022/02/19 03:18:01;;;;;;;;;1.00;0.00;;;;;6.18;67.76;101561.63;5054467;28;46861;-73
2022/02/19 03:20:27;;;;;;;;;0.75;0.75;;;;;6.17;67.51;101564.25;5052249;28;45378;-73
2022/02/19 03:22:52;;;;;;;;;0.00;0.00;;;;;6.15;67.43;101568.59;5055309;28;45951;-73
2022/02/19 03:25:18;;;;;;;;;0.25;0.25;;;;;6.13;67.89;101568.63;5054585;28;45394;-73
2022/02/19 03:27:44;;;;;;;;;3.00;0.00;;;;;6.13;67.87;101573.00;5054766;28;45537;-73
2022/02/19 03:30:11;;;;;;;;;0.00;0.00;;;;;6.11;67.87;101582.56;5054707;28;45415;-73
2022/02/19 03:32:37;;;;;;;;;0.25;0.00;;;;;6.11;68.18;101583.47;5055231;28;45474;-73
2022/02/19 03:35:05;;;;;;;;;0.00;0.00;;;;;6.09;68.63;101579.97;5053381;28;45755;-73
2022/02/19 03:37:38;;;;;;;;;0.50;0.00;;;;;6.09;68.37;101584.34;5054091;28;46298;-73
2022/02/19 03:40:08;;;;;;;;;5.00;2.00;;;;;6.06;68.47;101584.41;5054525;28;45332;-73
2022/02/19 03:42:38;;;;;;;;;2.00;0.00;;;;;6.05;68.47;101585.25;5054185;28;47107;-73
2022/02/19 03:45:06;;;;;;;;;2.00;1.00;;;;;6.01;68.58;101585.28;5054125;28;45404;-73
2022/02/19 03:47:31;;;;;;;;;1.75;0.75;;;;;6.01;68.35;101597.47;5054670;28;45269;-73
2022/02/19 03:49:57;;;;;;;;;0.25;0.25;;;;;6.00;69.04;101603.56;5054814;28;45500;-73
2022/02/19 03:52:22;;;;;;;;;1.00;1.00;;;;;5.98;68.64;101600.97;5054298;28;51324;-73
2022/02/19 03:54:48;;;;;;;;;1.00;1.00;;;;;5.97;68.83;101606.22;5054350;28;45493;-73
2022/02/19 03:57:13;;;;;;;;;0.25;0.25;;;;;5.95;68.68;101597.53;5054292;28;49935;-73
2022/02/19 03:59:38;;;;;;;;;1.00;1.00;;;;;5.95;68.57;101602.75;5053891;28;45418;-73
2022/02/19 04:02:04;;;;;;;;;2.00;1.00;;;;;5.93;69.29;101602.75;5054112;28;46073;-73
2022/02/19 04:04:29;;;;;;;;;0.00;0.00;;;;;5.93;69.13;101604.50;5054515;28;45329;-73
2022/02/19 04:06:54;;;;;;;;;4.00;1.00;;;;;5.92;69.30;101605.41;5053230;28;45430;-73
2022/02/19 04:09:20;;;;;;;;;2.00;0.00;;;;;5.90;69.40;101601.88;5052713;28;50952;-73
2022/02/19 04:11:45;;;;;;;;;1.00;1.00;;;;;5.87;69.14;101605.41;5053743;28;45478;-73
2022/02/19 04:14:10;;;;;;;;;0.00;0.00;;;;;5.88;69.51;101606.25;5054615;28;45397;-73
2022/02/19 04:16:36;;;;;;;;;1.00;0.00;;;;;5.86;69.26;101611.50;5054544;28;45310;-73
2022/02/19 04:19:01;;;;;;;;;3.00;1.00;;;;;5.86;69.67;101616.72;5053895;28;45425;-73
2022/02/19 04:21:26;;;;;;;;;1.25;0.00;;;;;5.85;69.51;101620.22;5053863;28;47139;-73
2022/02/19 04:23:53;;;;;;;;;1.00;1.00;;;;;5.84;69.26;101623.69;5054302;28;45547;-73
2022/02/19 04:26:18;;;;;;;;;0.50;0.50;;;;;5.81;69.87;101628.94;5050076;28;45476;-72
2022/02/19 04:28:44;;;;;;;;;5.50;1.00;;;;;5.82;69.57;101630.66;5053504;28;45631;-73
2022/02/19 04:31:09;;;;;;;;;1.25;1.00;;;;;5.82;69.46;101630.66;5053152;28;46231;-73
2022/02/19 04:33:34;;;;;;;;;3.25;0.00;;;;;5.82;69.68;101638.50;5053760;28;45454;-72
2022/02/19 04:36:00;;;;;;;;;2.00;0.00;;;;;5.81;69.85;101638.50;5054071;28;47733;-72
2022/02/19 04:38:25;;;;;;;;;2.00;0.00;;;;;5.76;69.93;101634.19;5053360;28;45613;-73
2022/02/19 04:40:51;;;;;;;;;0.00;0.00;;;;;5.76;70.05;101651.59;5055418;28;46158;-72
2022/02/19 04:43:17;;;;;;;;;1.25;1.00;;;;;5.74;70.24;101655.94;5056671;28;45278;-73
2022/02/19 04:45:42;;;;;;;;;2.00;0.50;;;;;5.74;70.09;101655.94;5057723;28;45416;-73
2022/02/19 04:48:07;;;;;;;;;0.75;0.00;;;;;5.71;69.96;101654.22;5057258;28;45410;-73
2022/02/19 04:50:33;;;;;;;;;1.25;1.00;;;;;5.71;70.41;101658.59;5054087;28;46141;-72
2022/02/19 04:52:58;;;;;;;;;0.00;0.00;;;;;5.65;70.34;101656.03;5057275;28;45443;-73
2022/02/19 04:55:24;;;;;;;;;3.75;1.00;;;;;5.67;70.00;101665.56;5057312;28;45536;-73
2022/02/19 04:57:49;;;;;;;;;0.75;0.00;;;;;5.62;70.14;101661.25;5057177;28;45665;-73
2022/02/19 05:00:17;;;;;;;;;2.00;0.00;;;;;5.64;69.94;101680.38;5057028;28;46007;-73
2022/02/19 05:02:42;;;;;;;;;2.50;0.50;;;;;5.60;70.57;101679.53;5056840;28;45340;-73
2022/02/19 05:05:08;;;;;;;;;3.75;1.00;;;;;5.61;70.51;101683.88;5058122;28;45415;-73
2022/02/19 05:07:34;;;;;;;;;2.00;0.00;;;;;5.56;70.43;101682.16;5055913;28;45458;-73
2022/02/19 05:10:00;;;;;;;;;0.25;0.00;;;;;5.59;70.55;101682.16;5056263;28;46820;-72
2022/02/19 05:12:25;;;;;;;;;1.00;1.00;;;;;5.57;70.35;101679.53;5056643;28;45366;-73
2022/02/19 05:14:50;;;;;;;;;2.00;2.00;;;;;5.58;70.94;101688.22;5055974;28;45301;-73
2022/02/19 05:17:16;;;;;;;;;0.50;0.00;;;;;5.56;70.82;101682.16;5056824;28;46139;-72
2022/02/19 05:19:42;;;;;;;;;2.00;1.00;;;;;5.55;70.47;101683.06;5056586;28;45468;-72
2022/02/19 05:22:08;;;;;;;;;0.00;0.00;;;;;5.55;70.72;101689.13;5056401;28;45850;-73
2022/02/19 05:24:33;;;;;;;;;1.75;0.00;;;;;5.54;71.00;101694.38;5056697;28;45467;-73
2022/02/19 05:26:59;;;;;;;;;0.00;0.00;;;;;5.52;70.58;101691.75;5056859;28;45449;-73
2022/02/19 05:29:24;;;;;;;;;1.75;0.50;;;;;5.49;70.57;101702.22;5056869;28;53118;-72
2022/02/19 05:31:49;;;;;;;;;0.00;0.00;;;;;5.46;70.76;101695.25;5056496;28;50526;-73
2022/02/19 05:34:15;;;;;;;;;0.75;0.50;;;;;5.44;70.86;101699.63;5055636;28;45496;-73
2022/02/19 05:36:40;;;;;;;;;5.00;0.00;;;;;5.42;71.41;101696.16;5056180;28;45434;-73
2022/02/19 05:39:05;;;;;;;;;1.00;1.00;;;;;5.40;71.20;101690.09;5055664;28;45510;-73
2022/02/19 05:41:31;;;;;;;;;2.00;0.00;;;;;5.39;70.93;101684.91;5056228;28;45329;-73
2022/02/19 05:43:56;;;;;;;;;3.50;1.75;;;;;5.36;71.52;101677.94;5056729;28;45485;-73
2022/02/19 05:46:22;;;;;;;;;0.00;0.00;;;;;5.35;71.57;101688.38;5056099;28;45454;-73
2022/02/19 05:48:47;;;;;;;;;2.00;0.50;;;;;5.33;71.74;101677.13;5047429;28;46421;-73
2022/02/19 05:51:12;;;;;;;;;1.25;1.25;;;;;5.33;71.39;101685.81;5055116;28;51420;-73
2022/02/19 05:53:38;;;;;;;;;4.50;0.75;;;;;5.33;71.57;101684.94;5055664;28;45987;-73
2022/02/19 05:56:03;;;;;;;;;1.00;1.00;;;;;5.32;71.26;101684.03;5056627;28;48982;-73
2022/02/19 05:58:29;;;;;;;;;0.00;0.00;;;;;5.31;71.32;101679.72;5055335;28;46173;-73
2022/02/19 06:00:54;;;;;;;;;1.75;0.00;;;;;5.26;71.41;101678.00;5056069;28;45336;-73
2022/02/19 06:03:20;;;;;;;;;0.00;0.00;;;;;5.29;72.01;101683.22;5056651;28;45542;-73
2022/02/19 06:05:45;;;;;;;;;2.00;0.00;;;;;5.29;71.68;101691.91;5055124;28;45463;-73
2022/02/19 06:08:11;;;;;;;;;0.00;0.00;;;;;5.29;72.11;101694.50;5056383;28;46516;-74
2022/02/19 06:10:36;;;;;;;;;1.00;1.00;;;;;5.28;71.57;101691.91;5055827;28;45695;-73
2022/02/19 06:13:02;;;;;;;;;1.00;1.00;;;;;5.26;71.60;101694.50;5056118;28;45613;-73
2022/02/19 06:15:27;;;;;;;;;1.00;0.00;;;;;5.26;71.72;101688.44;5056110;28;45572;-73
2022/02/19 06:17:52;;;;;;;;;4.00;2.00;;;;;5.23;71.99;101691.94;5055663;28;52795;-73
2022/02/19 06:20:18;;;;;;;;;0.00;0.00;;;;;5.17;71.50;101689.38;5056288;28;45464;-74
2022/02/19 06:22:43;;;;;;;;;4.25;0.00;;;;;5.19;71.69;101693.69;5055561;28;45304;-73
2022/02/19 06:25:09;;;;;;;;;3.00;1.25;;;;;5.17;72.26;101703.28;5055190;28;45524;-74
2022/02/19 06:27:39;;;;;;;;;2.00;0.75;;;;;5.14;72.11;101702.41;5055707;28;46088;-74
2022/02/19 06:30:05;;;;;;;;;3.00;1.50;;;;;5.12;72.25;101710.25;5055669;28;45937;-74
2022/02/19 06:32:30;;;;;;;;;4.00;1.00;;;;;5.11;72.27;101712.84;5056242;28;45502;-74
2022/02/19 06:34:55;;;;;;;;;1.67;0.00;;;;;5.08;72.32;101718.06;5055458;28;60412;-74
2022/02/19 06:37:21;;;;;;;;;4.50;1.25;;;;;5.07;72.19;101718.97;5055382;28;50812;-74
2022/02/19 06:39:46;;;;;;;;;4.50;0.00;;;;;5.06;72.82;101728.47;5055358;28;45384;-74
2022/02/19 06:42:12;;;;;;;;;0.50;0.00;;;;;5.02;72.42;101725.94;5054438;28;45359;-74
2022/02/19 06:44:37;;;;;;;;;3.25;0.00;;;;;5.02;72.66;101724.19;5053161;28;45384;-73
2022/02/19 06:47:02;;;;;;;;;1.00;0.25;;;;;5.01;72.57;101729.38;5048816;28;46253;-74
2022/02/19 06:49:28;;;;;;;;;0.50;0.25;;;;;5.00;72.55;101738.94;5056059;28;45780;-74
2022/02/19 06:51:53;;;;;;;;;3.00;1.00;;;;;4.97;73.08;101744.19;5056274;28;45457;-74
2022/02/19 06:54:18;;;;;;;;;0.75;0.75;;;;;5.00;73.05;101743.28;5055876;28;45502;-74
2022/02/19 06:56:44;;;;;;;;;0.50;0.25;;;;;5.03;72.72;101751.09;5053417;28;45443;-73
2022/02/19 06:59:10;;;;;;;;;0.50;0.50;;;;;5.02;72.82;101754.59;5039538;28;45935;-73
2022/02/19 07:01:37;;;;;;;;;2.00;1.00;;;;;5.04;72.91;101766.72;5056788;28;45959;-74
2022/02/19 07:04:02;;;;;;;;;5.00;0.25;;;;;5.02;73.13;101770.22;5056125;28;45269;-74
2022/02/19 07:06:27;;;;;;;;;2.00;0.33;;;;;5.07;73.31;101773.66;5034464;28;57428;-74
2022/02/19 07:08:53;;;;;;;;;3.67;0.33;;;;;5.09;73.28;101787.53;5051458;28;47294;-74
2022/02/19 07:11:18;;;;;;;;;1.50;0.00;;;;;5.10;72.74;101784.06;5057380;28;45473;-74
2022/02/19 07:13:43;;;;;;;;;1.00;1.00;;;;;5.14;72.96;101783.19;5058796;28;45389;-74
2022/02/19 07:16:09;;;;;;;;;4.00;1.75;;;;;5.19;72.75;101781.44;5056452;28;47086;-74
2022/02/19 07:18:34;;;;;;;;;1.25;1.00;;;;;5.26;72.61;101784.88;5052319;28;45614;-73
2022/02/19 07:21:00;;;;;;;;;3.00;1.00;;;;;5.31;72.80;101791.78;5067989;28;45375;-73
2022/02/19 07:23:26;;;;;;;;;2.00;1.00;;;;;5.38;72.62;101785.69;5056337;28;45463;-74
2022/02/19 07:25:51;;;;;;;;;5.00;1.00;;;;;5.46;72.46;101777.81;5057351;28;46012;-74
2022/02/19 07:28:17;;;;;;;;;2.00;0.00;;;;;5.83;72.68;101791.50;5057690;28;45895;-73
2022/02/19 07:30:43;;;;;;;;;0.25;0.25;;;;;6.32;72.24;101788.59;5056519;28;45474;-73
2022/02/19 07:33:09;;;;;;;;;0.25;0.00;;;;;6.65;71.39;101779.56;5053649;28;45488;-74
2022/02/19 07:35:34;;;;;;;;;1.00;1.00;;;;;7.15;70.67;101778.16;5054232;28;46548;-74
2022/02/19 07:38:00;;;;;;;;;0.00;0.00;;;;;7.47;69.93;101787.34;5056499;28;45720;-74
2022/02/19 07:40:26;;;;;;;;;3.25;1.50;;;;;7.83;69.19;101792.06;5056392;28;45871;-74
2022/02/19 07:42:52;;;;;;;;;2.00;1.00;;;;;8.13;68.62;101791.59;5056042;28;46867;-74
2022/02/19 07:45:18;;;;;;;;;2.50;1.25;;;;;8.72;68.05;101801.09;5054917;28;47097;-74
2022/02/19 07:47:43;;;;;;;;;2.25;0.00;;;;;9.75;67.76;101799.00;5052264;28;45545;-74
2022/02/19 07:58:26;;;;;;;;;6.00;1.00;;;;;12.02;59.99;101818.31;5055704;28;45841;-74
2022/02/19 08:00:57;;;;;;;;;3.00;2.00;;;;;12.58;60.85;101812.09;5055831;28;45493;-75
2022/02/19 08:03:24;;;;;;;;;2.50;0.75;;;;;13.83;59.42;101815.44;5050552;28;45364;-75
2022/02/19 08:05:51;;;;;;;;;1.00;1.00;;;;;14.88;57.95;101821.69;5051307;28;45686;-75
2022/02/19 08:08:17;;;;;;;;;1.75;0.75;;;;;15.56;54.90;101816.00;5055893;28;45435;-75
2022/02/19 08:10:43;;;;;;;;;1.25;0.50;;;;;15.60;53.54;101821.06;5051169;28;45417;-75
2022/02/19 08:13:09;;;;;;;;;2.25;1.00;;;;;16.04;53.89;101822.56;5055190;28;45529;-75
2022/02/19 08:15:35;;;;;;;;;1.00;0.00;;;;;16.91;52.76;101827.03;5051050;28;46189;-75
2022/02/19 08:18:02;;;;;;;;;1.00;1.00;;;;;18.04;52.70;101821.81;5050927;28;45705;-75
2022/02/19 08:20:28;;;;;;;;;3.00;2.00;;;;;19.16;50.68;101827.59;5066467;28;45494;-75
2022/02/19 08:22:53;;;;;;;;;2.75;1.00;;;;;19.95;48.76;101820.84;5055148;28;45306;-75
2022/02/19 08:25:18;;;;;;;;;1.25;1.00;;;;;20.65;46.87;101818.00;5055335;28;45595;-75
2022/02/19 08:27:44;;;;;;;;;2.00;1.25;;;;;21.15;45.65;101824.34;5054877;28;45561;-75
2022/02/19 08:30:10;;;;;;;;;1.75;1.75;;;;;21.66;44.96;101833.16;5047046;28;45796;-75
2022/02/19 08:32:36;;;;;;;;;5.00;1.75;;;;;22.26;43.74;101824.28;5035190;28;45905;-75
2022/02/19 08:35:01;;;;;;;;;1.00;1.00;;;;;22.97;43.28;101822.47;5045244;28;46962;-75
2022/02/19 08:37:27;;;;;;;;;2.00;2.00;;;;;23.88;42.47;101826.84;5045439;28;45547;-76
2022/02/19 08:39:52;;;;;;;;;3.00;1.00;;;;;24.64;40.75;101817.78;5048038;28;45583;-75
2022/02/19 08:42:18;;;;;;;;;7.25;3.25;;;;;24.97;37.04;101816.69;5050696;28;45328;-75
2022/02/19 08:44:43;;;;;;;;;3.25;1.00;;;;;25.09;38.78;101824.72;5043273;28;46072;-72
2022/02/19 08:47:09;;;;;;;;;2.00;0.75;;;;;25.42;37.55;101829.84;5036806;28;45407;-72
2022/02/19 08:49:34;;;;;;;;;3.50;1.25;;;;;26.05;37.82;101828.72;5047599;28;45830;-71
2022/02/19 08:52:01;;;;;;;;;1.00;1.00;;;;;26.44;36.13;101825.09;5045888;28;45423;-72
2022/02/19 08:54:26;;;;;;;;;2.50;1.25;;;;;27.05;36.38;101843.59;5047656;28;46091;-72
2022/02/19 08:56:52;;;;;;;;;1.00;1.00;;;;;27.81;35.98;101831.78;5048534;28;45560;-72
2022/02/19 08:59:19;;;;;;;;;2.00;0.25;;;;;28.77;34.87;101838.28;5046132;28;45388;-72
2022/02/19 09:01:44;;;;;;;;;1.25;1.00;;;;;29.10;32.94;101843.94;5049997;28;45646;-72
2022/02/19 09:04:11;;;;;;;;;3.00;1.50;;;;;29.36;33.24;101841.19;5043737;28;45512;-72
2022/02/19 09:06:36;;;;;;;;;2.00;1.00;;;;;29.87;32.42;101851.06;5047790;28;45715;-72
2022/02/19 09:09:06;;;;;;;;;0.75;0.75;;;;;30.32;32.42;101857.09;5053115;28;45398;-72
2022/02/19 09:11:35;;;;;;;;;3.25;1.25;;;;;30.76;30.94;101854.09;5052880;28;45580;-72
2022/02/19 09:14:04;;;;;;;;;1.75;1.75;;;;;30.92;30.34;101860.34;5050243;28;46464;-72
2022/02/19 09:16:32;;;;;;;;;3.00;1.50;;;;;31.34;30.18;101855.69;5054991;28;45438;-71
2022/02/19 09:18:58;;;;;;;;;1.25;1.00;;;;;31.53;28.12;101868.00;5054565;28;45703;-70
2022/02/19 09:21:23;;;;;;;;;1.00;1.00;;;;;31.54;29.05;101869.72;5055278;28;45565;-70
2022/02/19 09:23:49;;;;;;;;;1.00;1.00;;;;;32.03;28.70;101875.75;5050475;28;46258;-72
2022/02/19 09:26:14;;;;;;;;;1.75;1.00;;;;;32.37;27.70;101867.25;5056859;28;45639;-73
2022/02/19 09:28:39;;;;;;;;;1.75;1.00;;;;;32.28;27.75;101856.56;5051941;28;45496;-72
2022/02/19 09:31:05;;;;;;;;;2.50;1.00;;;;;31.93;27.26;101859.66;5057953;28;45576;-74
2022/02/19 09:33:30;;;;;;;;;3.75;2.00;;;;;31.53;27.18;101854.41;5056363;28;46211;-73
2022/02/19 09:35:56;;;;;;;;;2.00;2.00;;;;;31.72;26.96;101844.97;5054995;28;45553;-73
2022/02/19 09:38:22;;;;;;;;;2.50;0.50;;;;;32.04;26.92;101852.97;5054016;28;46196;-72
2022/02/19 09:40:48;;;;;;;;;2.50;1.25;;;;;32.43;26.39;101836.56;5068476;27;45411;-72
2022/02/19 09:43:15;;;;;;;;;2.25;1.50;;;;;33.12;26.53;101844.59;5060011;28;45752;-72
2022/02/19 09:45:41;;;;;;;;;0.50;0.50;;;;;33.73;24.24;101847.13;5053240;28;45432;-71
2022/02/19 09:48:09;;;;;;;;;2.25;0.75;;;;;33.43;24.90;101852.59;5053842;28;45815;-71
2022/02/19 09:50:35;;;;;;;;;1.00;1.00;;;;;33.60;25.03;101844.22;5063609;28;45474;-71
2022/02/19 09:53:04;;;;;;;;;3.50;0.00;;;;;33.58;24.44;101846.31;5058129;28;45569;-71
2022/02/19 09:55:29;;;;;;;;;4.25;1.00;;;;;33.90;25.03;101847.72;5061702;28;45643;-69
2022/02/19 09:57:55;;;;;;;;;3.00;2.00;;;;;34.21;24.13;101850.19;5064783;28;45514;-69
2022/02/19 10:00:28;;;;;;;;;3.00;1.50;;;;;34.37;23.36;101841.72;5034591;28;48562;-68
2022/02/19 10:02:54;;;;;;;;;1.75;1.50;;;;;34.09;24.02;101838.94;5036585;28;46467;-68
2022/02/19 10:05:19;;;;;;;;;0.75;0.50;;;;;34.01;23.99;101833.59;5052216;28;54403;-70
2022/02/19 10:08:00;;;;;;;;;1.25;1.00;;;;;34.23;23.46;101838.00;5057615;28;46053;-69
2022/02/19 10:10:26;;;;;;;;;3.00;1.00;;;;;33.71;23.11;101832.81;5058084;28;45767;-69
2022/02/19 10:12:52;;;;;;;;;2.50;1.75;;;;;32.68;22.74;101836.34;5057033;28;46008;-69
2022/02/19 10:15:18;;;;;;;;;4.50;1.25;;;;;32.11;23.90;101839.53;5054205;28;45824;-69
2022/02/19 10:17:43;;;;;;;;;1.50;0.50;;;;;31.64;23.90;101835.88;5054144;28;45420;-67
2022/02/19 10:20:11;;;;;;;;;3.25;1.00;;;;;30.93;23.95;101831.31;5058566;28;45501;-69
2022/02/19 10:22:41;;;;;;;;;5.75;5.75;;;;;29.79;24.71;101832.06;5057275;28;47327;-69
2022/02/19 10:25:07;;;;;;;;;1.50;1.50;;;;;29.16;25.75;101818.06;5057447;28;45752;-68
2022/02/19 10:27:43;;;;;;;;;2.00;2.00;;;;;28.96;25.90;101821.00;5057382;28;45473;-70
2022/02/19 10:30:09;;;;;;;;;4.75;1.25;;;;;28.76;26.21;101819.47;5052504;28;45930;-70
2022/02/19 10:32:49;;;;;;;;;1.00;1.00;;;;;28.55;25.97;101817.97;5069033;28;46161;-68
2022/02/19 10:35:15;;;;;;;;;1.50;1.50;;;;;27.62;26.20;101819.22;5055194;28;45423;-69
2022/02/19 10:37:46;;;;;;;;;1.00;0.00;;;;;26.29;26.31;101824.63;5057810;28;45837;-68
2022/02/19 10:40:33;;;;;;;;;1.00;1.00;;;;;25.44;27.76;101837.75;5057035;28;45531;-70
2022/02/19 10:43:02;;;;;;;;;2.00;1.00;;;;;25.10;28.43;101837.16;5055593;28;47337;-69
2022/02/19 10:45:28;;;;;;;;;2.25;2.00;;;;;24.85;28.61;101831.22;5052633;28;46071;-68
2022/02/19 10:48:21;;;;;;;;;1.50;0.75;;;;;24.27;29.19;101829.88;5052383;28;45946;-69
2022/02/19 10:50:48;;;;;;;;;1.75;0.50;;;;;23.82;29.34;101817.47;5068329;28;45365;-67
2022/02/19 10:53:25;;;;;;;;;1.75;1.00;;;;;23.41;29.47;101831.50;5057505;28;46697;-67
2022/02/19 10:55:52;;;;;;;;;5.25;1.00;;;;;23.09;30.15;101826.88;5057344;28;45499;-68
2022/02/19 10:58:17;;;;;;;;;2.00;1.00;;;;;22.62;30.19;101820.66;5057700;28;45508;-70
2022/02/19 11:00:44;;;;;;;;;1.50;1.50;;;;;22.52;31.28;101816.97;5054405;28;45463;-71
2022/02/19 11:03:10;;;;;;;;;2.00;0.00;;;;;22.34;30.49;101813.88;5055724;28;47120;-70
2022/02/19 11:05:36;;;;;;;;;0.00;0.00;;;;;21.87;30.83;101815.56;5054417;28;45777;-73
2022/02/19 11:08:02;;;;;;;;;0.00;0.00;;;;;21.61;31.23;101813.91;5057066;28;45513;-72
2022/02/19 11:10:29;;;;;;;;;0.50;0.50;;;;;21.50;31.24;101817.34;5051776;28;45569;-70
2022/02/19 11:12:55;;;;;;;;;3.00;1.00;;;;;21.51;32.17;101821.75;5054934;28;46425;-71
2022/02/19 11:15:23;;;;;;;;;1.00;1.00;;;;;21.54;32.08;101824.19;5055235;28;46221;-71
2022/02/19 11:17:49;;;;;;;;;1.50;0.00;;;;;21.47;31.67;101822.09;5055465;28;45308;-71
2022/02/19 11:20:16;;;;;;;;;1.25;1.25;;;;;21.10;31.62;101820.16;5060606;28;45273;-70
2022/02/19 11:22:43;;;;;;;;;1.75;0.75;;;;;20.84;32.67;101807.75;5059523;28;45474;-71
2022/02/19 11:25:14;;;;;;;;;3.00;2.00;;;;;20.76;32.55;101810.09;5059058;28;45411;-71
2022/02/19 11:27:46;;;;;;;;;2.25;1.25;;;;;20.67;32.62;101808.03;5059077;28;45587;-73
2022/02/19 11:30:12;;;;;;;;;2.25;0.75;;;;;20.25;32.73;101810.81;5053691;28;45446;-74
2022/02/19 11:32:39;;;;;;;;;4.25;2.25;;;;;19.85;33.61;101796.59;5060930;28;45436;-70
2022/02/19 11:35:08;;;;;;;;;1.75;0.75;;;;;19.61;33.77;101795.50;5057735;28;45644;-73